createdAt,value
2022-11-15T00:02:14.676Z,3.53
2022-11-15T00:04:36.294Z,3.90
2022-11-15T00:06:57.846Z,4.10
2022-11-15T00:09:19.398Z,3.80
2022-11-15T00:11:40.836Z,4.13
2022-11-15T00:14:03.632Z,3.97
2022-11-15T00:16:25.876Z,4.27
2022-11-15T00:18:50.571Z,3.80
2022-11-15T00:21:13.724Z,4.00
2022-11-15T00:23:35.214Z,4.07
2022-11-15T00:25:58.532Z,4.33
2022-11-15T00:28:19.992Z,3.93
2022-11-15T00:30:41.463Z,4.47
2022-11-15T00:33:06.642Z,3.63
2022-11-15T00:35:28.130Z,4.30
2022-11-15T00:37:49.738Z,3.90
2022-11-15T00:40:11.735Z,3.97
2022-11-15T00:42:33.208Z,3.87
2022-11-15T00:44:54.706Z,4.83
2022-11-15T00:47:16.153Z,3.67
2022-11-15T00:49:37.621Z,3.50
2022-11-15T00:51:59.135Z,3.90
2022-11-15T00:54:20.594Z,3.73
2022-11-15T00:56:42.035Z,3.70
2022-11-15T00:59:03.705Z,3.70
2022-11-15T01:01:25.237Z,3.73
2022-11-15T01:03:46.795Z,3.83
2022-11-15T01:06:11.214Z,3.70
2022-11-15T01:08:32.702Z,3.57
2022-11-15T01:10:54.138Z,3.97
2022-11-15T01:13:15.588Z,3.27
2022-11-15T01:15:41.271Z,3.27
2022-11-15T01:18:02.768Z,3.50
2022-11-15T01:20:24.191Z,3.33
2022-11-15T01:22:45.643Z,3.67
2022-11-15T01:25:07.275Z,3.93
2022-11-15T01:27:28.737Z,4.07
2022-11-15T01:29:50.222Z,3.60
2022-11-15T01:32:11.883Z,3.33
2022-11-15T01:34:33.356Z,3.87
2022-11-15T01:36:54.790Z,4.27
2022-11-15T01:39:16.397Z,3.63
2022-11-15T01:41:37.839Z,4.00
2022-11-15T01:44:34.348Z,3.77
2022-11-15T01:46:55.840Z,3.93
2022-11-15T01:49:22.585Z,3.53
2022-11-15T01:51:44.220Z,3.77
2022-11-15T01:54:11.430Z,4.10
2022-11-15T01:56:39.396Z,4.27
2022-11-15T01:59:05.304Z,3.70
2022-11-15T02:01:28.925Z,4.00
2022-11-15T02:03:59.926Z,3.90
2022-11-15T02:06:22.867Z,3.77
2022-11-15T02:08:45.219Z,4.27
2022-11-15T02:11:10.059Z,4.67
2022-11-15T02:13:32.016Z,4.03
2022-11-15T02:16:05.761Z,4.20
2022-11-15T02:18:38.982Z,4.20
2022-11-15T02:21:18.618Z,3.93
2022-11-15T02:23:58.858Z,3.93
2022-11-15T02:26:57.922Z,4.03
2022-11-15T02:29:56.990Z,4.23
2022-11-15T02:32:45.190Z,4.17
2022-11-15T02:35:21.580Z,4.57
2022-11-15T02:37:55.397Z,4.30
2022-11-15T02:40:25.868Z,4.07
2022-11-15T02:43:17.168Z,4.57
2022-11-15T02:45:45.721Z,4.27
2022-11-15T02:48:10.261Z,4.40
2022-11-15T02:50:33.714Z,4.30
2022-11-15T02:52:55.238Z,5.23
2022-11-15T02:55:32.104Z,4.53
2022-11-15T02:58:10.216Z,4.70
2022-11-15T03:00:36.987Z,4.13
2022-11-15T03:03:40.701Z,4.40
2022-11-15T03:06:16.057Z,5.17
2022-11-15T03:08:52.465Z,4.70
2022-11-15T03:11:18.322Z,4.80
2022-11-15T03:13:45.509Z,4.67
2022-11-15T03:16:13.654Z,4.50
2022-11-15T03:18:39.733Z,4.60
2022-11-15T03:21:05.316Z,4.67
2022-11-15T03:23:27.241Z,4.20
2022-11-15T03:25:51.977Z,5.67
2022-11-15T03:28:17.859Z,4.93
2022-11-15T03:30:40.933Z,5.33
2022-11-15T03:33:05.010Z,4.70
2022-11-15T03:35:30.085Z,4.80
2022-11-15T03:37:59.895Z,5.00
2022-11-15T03:40:29.807Z,4.97
2022-11-15T03:43:14.695Z,5.90
2022-11-15T03:45:55.500Z,5.87
2022-11-15T03:48:25.002Z,5.67
2022-11-15T03:50:47.356Z,6.13
2022-11-15T03:53:09.196Z,5.20
2022-11-15T03:55:33.348Z,6.00
2022-11-15T03:57:58.908Z,6.17
2022-11-15T04:00:20.434Z,6.20
2022-11-15T04:02:41.882Z,5.70
2022-11-15T04:05:03.855Z,6.17
2022-11-15T04:07:25.386Z,5.97
2022-11-15T04:10:06.310Z,6.13
2022-11-15T04:12:33.835Z,6.07
2022-11-15T04:15:08.135Z,5.97
2022-11-15T04:17:29.723Z,5.90
2022-11-15T04:20:09.559Z,6.37
2022-11-15T04:22:49.714Z,6.50
2022-11-15T04:25:11.164Z,5.57
2022-11-15T04:27:32.602Z,5.93
2022-11-15T04:29:54.060Z,6.60
2022-11-15T04:32:15.534Z,6.40
2022-11-15T04:34:37.355Z,6.37
2022-11-15T04:37:13.952Z,6.90
2022-11-15T04:39:35.401Z,6.57
2022-11-15T04:41:56.843Z,6.73
2022-11-15T04:44:18.282Z,6.57
2022-11-15T04:46:39.712Z,8.00
2022-11-15T04:49:01.169Z,8.10
2022-11-15T04:51:22.724Z,8.07
2022-11-15T04:53:44.169Z,7.50
2022-11-15T04:56:05.737Z,8.03
2022-11-15T04:58:27.197Z,7.47
2022-11-15T05:00:48.742Z,7.50
2022-11-15T05:03:29.801Z,6.93
2022-11-15T05:05:51.432Z,7.20
2022-11-15T05:08:12.928Z,7.70
2022-11-15T05:10:34.458Z,7.60
2022-11-15T05:12:55.875Z,8.07
2022-11-15T05:15:17.555Z,7.83
2022-11-15T05:17:38.957Z,7.80
2022-11-15T05:20:00.509Z,8.50
2022-11-15T05:22:22.288Z,7.77
2022-11-15T05:24:43.716Z,8.37
2022-11-15T05:27:05.152Z,9.30
2022-11-15T05:29:26.593Z,16.13
2022-11-15T05:31:48.268Z,15.33
2022-11-15T05:34:10.449Z,10.03
2022-11-15T05:36:39.086Z,8.23
2022-11-15T05:39:00.606Z,7.10
2022-11-15T05:41:28.032Z,5.93
2022-11-15T05:43:50.924Z,6.27
2022-11-15T05:46:14.339Z,6.03
2022-11-15T05:48:38.658Z,6.70
2022-11-15T05:51:00.727Z,6.57
2022-11-15T05:53:24.590Z,6.50
2022-11-15T05:55:46.331Z,6.90
2022-11-15T05:58:08.279Z,6.73
2022-11-15T06:00:29.761Z,6.60
2022-11-15T06:02:51.223Z,6.03
2022-11-15T06:05:12.702Z,5.93
2022-11-15T06:07:34.380Z,6.37
2022-11-15T06:09:55.899Z,6.53
2022-11-15T06:12:17.364Z,7.20
2022-11-15T06:14:38.835Z,6.47
2022-11-15T06:17:00.273Z,7.00
2022-11-15T06:19:21.795Z,6.60
2022-11-15T06:21:43.226Z,6.90
2022-11-15T06:24:05.931Z,6.70
2022-11-15T06:26:27.370Z,6.97
2022-11-15T06:28:48.840Z,6.70
2022-11-15T06:31:12.096Z,7.00
2022-11-15T06:33:34.244Z,6.90
2022-11-15T06:35:56.067Z,7.23
2022-11-15T06:38:17.503Z,7.03
2022-11-15T06:40:40.353Z,6.57
2022-11-15T06:43:01.876Z,7.07
2022-11-15T06:45:23.331Z,7.27
2022-11-15T06:47:48.258Z,6.90
2022-11-15T06:50:10.181Z,7.00
2022-11-15T06:52:33.597Z,6.63
2022-11-15T06:54:55.093Z,6.70
2022-11-15T06:57:16.524Z,6.60
2022-11-15T06:59:40.661Z,6.30
2022-11-15T07:02:02.511Z,7.00
2022-11-15T07:04:23.996Z,7.23
2022-11-15T07:06:49.963Z,7.10
2022-11-15T07:09:11.456Z,6.83
2022-11-15T07:11:34.230Z,6.93
2022-11-15T07:13:55.721Z,6.90
2022-11-15T07:16:17.159Z,6.30
2022-11-15T07:18:39.762Z,6.50
2022-11-15T07:21:03.082Z,6.50
2022-11-15T07:23:24.543Z,7.20
2022-11-15T07:25:46.065Z,6.27
2022-11-15T07:28:07.798Z,6.00
2022-11-15T07:30:29.565Z,6.77
2022-11-15T07:32:55.332Z,6.33
2022-11-15T07:35:16.938Z,8.77
2022-11-15T07:37:38.511Z,12.60
2022-11-15T07:39:59.991Z,9.77
2022-11-15T07:42:39.909Z,6.57
2022-11-15T07:45:01.343Z,6.63
2022-11-15T07:47:22.824Z,7.37
2022-11-15T07:49:44.334Z,8.20
2022-11-15T07:52:05.777Z,6.27
2022-11-15T07:54:27.229Z,6.13
2022-11-15T07:56:48.664Z,6.47
2022-11-15T07:59:10.128Z,6.17
2022-11-15T08:01:31.858Z,6.37
2022-11-15T08:03:53.359Z,5.90
2022-11-15T08:06:14.810Z,5.43
2022-11-15T08:08:36.285Z,6.27
2022-11-15T08:11:01.449Z,5.60
2022-11-15T08:13:22.954Z,5.70
2022-11-15T08:15:44.833Z,5.60
2022-11-15T08:18:10.033Z,5.30
2022-11-15T08:20:32.328Z,5.60
2022-11-15T08:22:53.770Z,5.57
2022-11-15T08:25:15.391Z,7.43
2022-11-15T08:27:36.923Z,7.87
2022-11-15T08:29:59.631Z,7.50
2022-11-15T08:32:21.222Z,7.40
2022-11-15T08:34:42.663Z,8.93
2022-11-15T08:37:04.254Z,8.73
2022-11-15T08:39:25.724Z,7.80
2022-11-15T08:41:47.129Z,6.37
2022-11-15T08:44:08.574Z,6.60
2022-11-15T08:46:30.119Z,5.13
2022-11-15T08:48:51.606Z,5.63
2022-11-15T08:51:13.038Z,5.70
2022-11-15T08:53:35.154Z,5.43
2022-11-15T08:55:56.611Z,5.17
2022-11-15T08:58:18.120Z,5.37
2022-11-15T09:00:39.578Z,6.10
2022-11-15T09:03:00.995Z,5.53
2022-11-15T09:05:22.468Z,5.63
2022-11-15T09:07:44.465Z,5.63
2022-11-15T09:10:06.171Z,6.23
2022-11-15T09:12:27.725Z,5.53
2022-11-15T09:14:49.154Z,5.50
2022-11-15T09:17:11.113Z,5.50
2022-11-15T09:19:32.594Z,5.97
2022-11-15T09:21:54.157Z,5.63
2022-11-15T09:24:15.643Z,5.23
2022-11-15T09:26:37.071Z,5.50
2022-11-15T09:28:58.547Z,4.90
2022-11-15T09:31:22.192Z,5.60
2022-11-15T09:33:47.220Z,5.80
2022-11-15T09:36:10.198Z,5.17
2022-11-15T09:38:32.485Z,5.23
2022-11-15T09:41:13.967Z,5.20
2022-11-15T09:44:06.190Z,5.50
2022-11-15T09:46:53.739Z,5.17
2022-11-15T09:49:17.191Z,5.30
2022-11-15T09:51:47.635Z,5.10
2022-11-15T09:54:51.530Z,5.30
2022-11-15T09:56:51.613Z,5.20
2022-11-15T10:00:07.730Z,5.43
2022-11-15T10:03:03.960Z,4.40
2022-11-15T10:05:27.240Z,4.57
2022-11-15T10:08:06.957Z,5.13
2022-11-15T10:10:40.781Z,4.90
2022-11-15T10:13:02.648Z,5.03
2022-11-15T10:15:24.495Z,4.30
2022-11-15T10:18:09.821Z,4.30
2022-11-15T10:20:49.116Z,4.50
2022-11-15T10:23:14.930Z,4.73
2022-11-15T10:25:36.518Z,4.23
2022-11-15T10:28:30.187Z,4.63
2022-11-15T10:30:55.611Z,4.90
2022-11-15T10:33:37.501Z,3.97
2022-11-15T10:36:14.289Z,4.93
2022-11-15T10:38:50.935Z,4.57
2022-11-15T10:41:12.939Z,5.10
2022-11-15T10:43:34.385Z,5.40
2022-11-15T10:45:55.844Z,4.63
2022-11-15T10:48:23.786Z,4.50
2022-11-15T10:50:50.497Z,4.43
2022-11-15T10:53:39.225Z,4.53
2022-11-15T10:56:05.173Z,4.60
2022-11-15T10:58:40.961Z,4.03
2022-11-15T11:01:14.778Z,4.13
2022-11-15T11:03:41.294Z,3.53
2022-11-15T11:06:07.049Z,4.07
2022-11-15T11:08:28.865Z,3.73
2022-11-15T11:11:02.661Z,4.00
2022-11-15T11:13:26.412Z,5.30
2022-11-15T11:15:52.435Z,4.87
2022-11-15T11:18:28.393Z,4.33
2022-11-15T11:20:55.891Z,4.60
2022-11-15T11:23:17.286Z,4.20
2022-11-15T11:25:54.761Z,3.90
2022-11-15T11:28:54.318Z,3.40
2022-11-15T11:31:24.703Z,4.10
2022-11-15T11:34:10.226Z,3.90
2022-11-15T11:36:56.810Z,4.57
2022-11-15T11:39:26.448Z,4.10
2022-11-15T11:41:58.649Z,4.43
2022-11-15T11:44:48.338Z,4.20
2022-11-15T11:47:34.663Z,3.83
2022-11-15T11:50:04.082Z,4.17
2022-11-15T11:52:34.297Z,4.10
2022-11-15T11:54:59.572Z,3.87
2022-11-15T11:57:54.181Z,3.90
2022-11-15T12:00:24.167Z,4.40
2022-11-15T12:03:14.948Z,3.80
2022-11-15T12:05:41.557Z,3.80
2022-11-15T12:08:21.220Z,3.83
2022-11-15T12:10:47.045Z,3.87
2022-11-15T12:13:17.378Z,3.23
2022-11-15T12:16:31.146Z,3.40
2022-11-15T12:18:55.652Z,3.83
2022-11-15T12:21:35.727Z,3.95
2022-11-15T12:24:05.366Z,3.70
2022-11-15T12:26:34.096Z,3.53
2022-11-15T12:29:08.952Z,3.80
2022-11-15T12:31:40.958Z,3.22
2022-11-15T12:34:23.083Z,3.20
2022-11-15T12:36:45.176Z,2.78
2022-11-15T12:39:09.969Z,2.15
2022-11-15T12:41:37.324Z,2.75
2022-11-15T12:44:00.141Z,3.28
2022-11-15T12:46:30.727Z,2.97
2022-11-15T12:48:58.627Z,3.28
2022-11-15T12:51:42.971Z,2.58
2022-11-15T12:54:24.418Z,3.00
2022-11-15T12:56:45.904Z,2.97
2022-11-15T12:59:07.767Z,2.90
2022-11-15T13:01:32.830Z,2.90
2022-11-15T13:04:12.835Z,3.03
2022-11-15T13:06:39.871Z,3.28
2022-11-15T13:09:01.427Z,3.25
2022-11-15T13:11:45.991Z,3.45
2022-11-15T13:14:42.372Z,3.90
2022-11-15T13:17:34.967Z,3.75
2022-11-15T13:20:01.539Z,3.30
2022-11-15T13:22:41.371Z,3.47
2022-11-15T13:25:03.558Z,3.35
2022-11-15T13:27:25.894Z,3.30
2022-11-15T13:29:47.485Z,3.20
2022-11-15T13:32:16.361Z,3.60
2022-11-15T13:34:54.039Z,3.88
2022-11-15T13:37:36.546Z,3.30
2022-11-15T13:40:23.985Z,3.33
2022-11-15T13:42:45.977Z,3.60
2022-11-15T13:45:15.827Z,3.30
2022-11-15T13:47:37.277Z,3.22
2022-11-15T13:50:01.941Z,3.50
2022-11-15T13:52:29.082Z,3.70
2022-11-15T13:55:04.631Z,3.50
2022-11-15T13:57:47.835Z,3.30
2022-11-15T14:00:27.548Z,3.60
2022-11-15T14:02:49.121Z,3.92
2022-11-15T14:05:22.285Z,3.70
2022-11-15T14:08:15.877Z,3.83
2022-11-15T14:10:38.518Z,4.10
2022-11-15T14:13:01.331Z,4.05
2022-11-15T14:15:30.018Z,3.42
2022-11-15T14:17:51.552Z,3.40
2022-11-15T14:20:31.872Z,3.22
2022-11-15T14:22:56.679Z,3.15
2022-11-15T14:25:37.269Z,3.55
2022-11-15T14:28:11.169Z,3.63
2022-11-15T14:30:32.729Z,3.30
2022-11-15T14:32:54.680Z,3.45
2022-11-15T14:35:19.818Z,3.20
2022-11-15T14:37:41.292Z,3.55
2022-11-15T14:40:07.051Z,3.55
2022-11-15T14:42:28.925Z,3.35
2022-11-15T14:44:50.690Z,3.63
2022-11-15T14:47:12.230Z,3.85
2022-11-15T14:49:33.763Z,4.10
2022-11-15T14:51:55.325Z,4.18
2022-11-15T14:54:16.772Z,3.80
2022-11-15T14:56:38.301Z,3.90
2022-11-15T14:59:00.206Z,3.90
2022-11-15T15:01:26.467Z,3.40
2022-11-15T15:03:48.140Z,3.43
2022-11-15T15:06:13.688Z,3.10
2022-11-15T15:08:39.448Z,3.37
2022-11-15T15:11:00.927Z,3.30
2022-11-15T15:13:25.125Z,3.50
2022-11-15T15:15:47.356Z,3.27
2022-11-15T15:18:09.615Z,3.00
2022-11-15T15:20:32.269Z,3.47
2022-11-15T15:22:57.059Z,2.87
2022-11-15T15:25:21.326Z,3.30
2022-11-15T15:27:42.786Z,3.20
2022-11-15T15:30:04.629Z,2.83
2022-11-15T15:32:26.120Z,4.07
2022-11-15T15:34:47.588Z,3.67
2022-11-15T15:37:25.529Z,3.10
2022-11-15T15:39:46.947Z,3.10
2022-11-15T15:42:08.369Z,3.50
2022-11-15T15:44:29.831Z,3.23
2022-11-15T15:46:51.250Z,3.50
2022-11-15T15:49:12.727Z,3.33
2022-11-15T15:51:34.181Z,3.43
2022-11-15T15:53:58.162Z,3.50
2022-11-15T15:56:19.669Z,3.00
2022-11-15T15:58:41.142Z,3.13
2022-11-15T16:01:02.741Z,3.60
2022-11-15T16:03:24.648Z,3.37
2022-11-15T16:05:46.368Z,4.50
2022-11-15T16:08:22.738Z,4.20
2022-11-15T16:10:44.206Z,3.77
2022-11-15T16:13:05.768Z,3.50
2022-11-15T16:15:31.490Z,3.73
2022-11-15T16:18:03.064Z,3.90
2022-11-15T16:20:33.441Z,3.77
2022-11-15T16:22:54.952Z,3.80
2022-11-15T16:25:16.406Z,3.83
2022-11-15T16:27:39.539Z,3.90
2022-11-15T16:30:00.973Z,3.83
2022-11-15T16:32:22.528Z,3.77
2022-11-15T16:34:48.753Z,3.83
2022-11-15T16:37:23.284Z,11.93
2022-11-15T16:39:44.763Z,16.93
2022-11-15T16:42:06.491Z,8.40
2022-11-15T16:44:29.337Z,5.87
2022-11-15T16:46:54.290Z,4.50
2022-11-15T16:49:15.775Z,4.23
2022-11-15T16:51:38.008Z,4.40
2022-11-15T16:53:59.492Z,4.20
2022-11-15T16:56:23.878Z,4.80
2022-11-15T16:58:45.377Z,5.00
2022-11-15T17:01:06.904Z,7.70
2022-11-15T17:03:28.681Z,18.03
2022-11-15T17:05:50.320Z,19.73
2022-11-15T17:08:11.758Z,9.20
2022-11-15T17:10:33.228Z,11.43
2022-11-15T17:12:56.028Z,6.83
2022-11-15T17:15:18.192Z,5.30
2022-11-15T17:17:40.761Z,5.70
2022-11-15T17:20:05.058Z,5.07
2022-11-15T17:22:26.561Z,5.70
2022-11-15T17:24:48.040Z,5.57
2022-11-15T17:27:09.514Z,7.63
2022-11-15T17:29:31.092Z,7.40
2022-11-15T17:31:52.628Z,9.07
2022-11-15T17:34:14.097Z,8.93
2022-11-15T17:36:35.757Z,6.20
2022-11-15T17:38:59.664Z,8.00
2022-11-15T17:41:21.625Z,8.67
2022-11-15T17:43:43.301Z,7.63
2022-11-15T17:46:07.819Z,6.57
2022-11-15T17:48:30.656Z,6.07
2022-11-15T17:51:00.308Z,5.17
2022-11-15T17:53:21.774Z,4.90
2022-11-15T17:55:43.257Z,5.00
2022-11-15T17:58:04.701Z,4.53
2022-11-15T18:00:26.173Z,4.60
2022-11-15T18:02:47.595Z,5.00
2022-11-15T18:05:09.254Z,4.70
2022-11-15T18:07:30.792Z,4.57
2022-11-15T18:09:52.300Z,4.17
2022-11-15T18:12:13.858Z,5.50
2022-11-15T18:14:35.395Z,9.73
2022-11-15T18:16:56.824Z,7.17
2022-11-15T18:19:18.319Z,5.00
2022-11-15T18:21:56.240Z,5.00
2022-11-15T18:24:17.863Z,5.80
2022-11-15T18:26:39.327Z,5.67
2022-11-15T18:29:05.137Z,7.40
2022-11-15T18:31:28.973Z,6.17
2022-11-15T18:33:51.550Z,5.60
2022-11-15T18:36:16.403Z,6.57
2022-11-15T18:38:38.153Z,23.07
2022-11-15T18:41:10.687Z,9.83
2022-11-15T18:43:32.562Z,10.20
2022-11-15T18:45:54.259Z,5.07
2022-11-15T18:48:15.768Z,5.50
2022-11-15T18:50:37.209Z,5.63
2022-11-15T18:53:01.157Z,5.47
2022-11-15T18:55:22.679Z,4.03
2022-11-15T18:57:44.166Z,4.13
2022-11-15T19:00:06.272Z,3.30
2022-11-15T19:02:28.131Z,4.00
2022-11-15T19:04:49.609Z,3.60
2022-11-15T19:07:11.138Z,3.33
2022-11-15T19:09:33.528Z,3.77
2022-11-15T19:11:55.007Z,3.60
2022-11-15T19:14:17.614Z,4.33
2022-11-15T19:16:45.158Z,4.13
2022-11-15T19:19:11.504Z,4.00
2022-11-15T19:21:34.153Z,4.60
2022-11-15T19:23:55.628Z,4.90
2022-11-15T19:26:17.339Z,4.77
2022-11-15T19:28:39.255Z,6.13
2022-11-15T19:31:23.610Z,5.57
2022-11-15T19:33:45.949Z,5.40
2022-11-15T19:36:11.974Z,5.10
2022-11-15T19:38:34.807Z,9.80
2022-11-15T19:41:05.444Z,5.90
2022-11-15T19:43:28.043Z,5.67
2022-11-15T19:46:01.934Z,7.27
2022-11-15T19:48:24.391Z,6.03
2022-11-15T19:50:45.864Z,5.83
2022-11-15T19:53:07.302Z,6.23
2022-11-15T19:55:28.867Z,5.50
2022-11-15T19:57:50.368Z,5.77
2022-11-15T20:00:12.037Z,5.87
2022-11-15T20:02:33.480Z,5.50
2022-11-15T20:04:54.948Z,5.50
2022-11-15T20:07:16.444Z,6.13
2022-11-15T20:09:38.474Z,5.53
2022-11-15T20:12:00.011Z,5.67
2022-11-15T20:14:21.560Z,5.30
2022-11-15T20:16:43.188Z,5.07
2022-11-15T20:19:05.131Z,5.30
2022-11-15T20:21:26.643Z,6.60
2022-11-15T20:23:50.807Z,6.43
2022-11-15T20:26:12.580Z,6.23
2022-11-15T20:28:36.169Z,5.60
2022-11-15T20:31:00.087Z,6.47
2022-11-15T20:33:22.561Z,6.13
2022-11-15T20:35:44.158Z,5.87
2022-11-15T20:38:07.577Z,5.73
2022-11-15T20:40:29.099Z,6.07
2022-11-15T20:42:53.573Z,5.67
2022-11-15T20:45:15.083Z,5.37
2022-11-15T20:47:36.559Z,5.70
2022-11-15T20:50:09.618Z,5.13
2022-11-15T20:52:39.748Z,5.57
2022-11-15T20:55:01.443Z,5.07
2022-11-15T20:57:22.888Z,5.37
2022-11-15T20:59:44.748Z,5.23
2022-11-15T21:02:06.899Z,5.23
2022-11-15T21:04:28.579Z,4.87
2022-11-15T21:06:50.731Z,5.00
2022-11-15T21:09:30.771Z,5.00
2022-11-15T21:12:11.171Z,5.40
2022-11-15T21:14:32.617Z,5.33
2022-11-15T21:16:54.130Z,5.47
2022-11-15T21:19:15.929Z,5.23
2022-11-15T21:21:38.016Z,5.30
2022-11-15T21:23:59.482Z,5.17
2022-11-15T21:26:21.572Z,5.40
2022-11-15T21:28:43.350Z,5.17
2022-11-15T21:31:04.880Z,4.63
2022-11-15T21:33:28.175Z,4.93
2022-11-15T21:35:51.479Z,5.13
2022-11-15T21:38:12.929Z,5.10
2022-11-15T21:40:34.411Z,5.10
2022-11-15T21:42:55.847Z,5.07
2022-11-15T21:45:17.431Z,4.97
2022-11-15T21:47:42.019Z,4.77
2022-11-15T21:50:07.433Z,5.27
2022-11-15T21:52:28.903Z,5.33
2022-11-15T21:54:50.377Z,5.13
2022-11-15T21:57:11.862Z,5.40
2022-11-15T21:59:33.447Z,5.20
2022-11-15T22:02:13.517Z,5.10
2022-11-15T22:04:35.031Z,5.60
2022-11-15T22:06:56.572Z,5.60
2022-11-15T22:09:18.081Z,5.90
2022-11-15T22:11:40.328Z,5.53
2022-11-15T22:14:02.006Z,5.73
2022-11-15T22:16:23.886Z,5.63
2022-11-15T22:18:45.425Z,6.00
2022-11-15T22:21:10.890Z,5.90
2022-11-15T22:23:33.900Z,6.47
2022-11-15T22:25:55.524Z,6.10
2022-11-15T22:28:17.610Z,6.17
2022-11-15T22:30:41.031Z,6.17
2022-11-15T22:33:02.518Z,6.27
2022-11-15T22:35:24.150Z,5.97
2022-11-15T22:37:45.639Z,7.20
2022-11-15T22:40:07.915Z,6.80
2022-11-15T22:42:29.525Z,6.27
2022-11-15T22:44:51.028Z,7.03
2022-11-15T22:47:12.852Z,6.80
2022-11-15T22:49:34.317Z,6.97
2022-11-15T22:51:55.854Z,6.47
2022-11-15T22:54:17.325Z,6.60
2022-11-15T22:56:38.810Z,6.70
2022-11-15T22:59:00.333Z,6.10
2022-11-15T23:01:22.317Z,7.20
2022-11-15T23:03:43.907Z,7.10
2022-11-15T23:06:07.186Z,5.97
2022-11-15T23:08:28.701Z,6.60
2022-11-15T23:11:09.188Z,6.60
2022-11-15T23:13:32.771Z,6.93
2022-11-15T23:16:23.910Z,6.27
2022-11-15T23:18:45.525Z,7.07
2022-11-15T23:21:09.856Z,6.33
2022-11-15T23:23:31.361Z,5.77
2022-11-15T23:25:59.002Z,5.77
2022-11-15T23:28:20.522Z,6.10
2022-11-15T23:31:00.636Z,6.07
2022-11-15T23:33:41.603Z,6.03
2022-11-15T23:36:03.385Z,6.23
2022-11-15T23:38:25.072Z,6.17
2022-11-15T23:40:54.982Z,6.07
2022-11-15T23:43:16.482Z,6.70
2022-11-15T23:45:38.039Z,6.60
2022-11-15T23:48:01.515Z,6.40
2022-11-15T23:50:23.267Z,6.60
2022-11-15T23:52:44.799Z,6.03
2022-11-15T23:55:06.629Z,6.30
2022-11-15T23:57:28.098Z,6.10
2022-11-15T23:59:49.584Z,6.30
